KNRB/NRB METAR and TAF weather

Enter ICAO airport designator
Station Type Date Time Source
KNRB METAR 2019/06/26 17:52 UTC NOAA

KNRB 261752Z 07010KT 10SM FEW040 FEW250 31/22 A3012 RMK AO2 SLP198 T03110222 10317 20283 58004 $


Station Type Date Time Source
KNRB Decoded METAR 2019/06/26 17:52 UTC NOAA

MAYPORT NAVAL AIR FACILITY, FL, United States (KNRB) 30-24N 81-25W 4M
Jun 26, 2019 - 01:52 PM EDT / 2019.06.26 1752 UTC
Wind: from the ENE (070 degrees) at 12 MPH (10 KT):0
Visibility: 10 mile(s):0
Sky conditions: mostly clear
Temperature: 88.0 F (31.1 C)
Heat index: 94.6 F (34.8 C):1
Dew Point: 72.0 F (22.2 C)
Relative Humidity: 59%
Pressure (altimeter): 30.12 in. Hg (1019 hPa)
Pressure tendency: 0.01 inches (0.4 hPa) lower than three hours ago
ob: KNRB 261752Z 07010KT 10SM FEW040 FEW250 31/22 A3012 RMK AO2 SLP198 T03110222 10317 20283 58004
cycle: 18

Station Type Date Time Source
KNRB TAF 2019/06/26 15:59 UTC NOAA

TAF KNRB 2615/2715 03010KT 9999 FEW035 SCT250 QNH3008INS
FM261800 06010G15KT 9999 SCT035 SCT250 QNH3000INS
FM270300 07010KT 9999 FEW035 FEW250 QNH3003INS
FM270800 VRB04KT 9999 FEW250 QNH3005INS T34/2619Z T25/2710Z FN20022

Example: see airport list